Aviation Digital Data Service (ADDS)

Output produced by METARs form (0639 UTC 27 March 2017)
found at http://www.aviationweather.gov/adds/metars/
 
TAF TUPJ 262300Z 2700/2724 16008KT 9999 SCT018 
     PROB40 
     TEMPO 2700/2708 SHRA 
     PROB40 
     TEMPO 2709/2718 4800 SHRA FEW013CB BKN014 
     PROB40 
     TEMPO 2712/2718 4000 +TSRA SCT012CB